sensor_id;sensor_type;location;lat;lon;timestamp;P1;durP1;ratioP1;P2;durP2;ratioP2
10005;SDS011;5042;42.626;23.382;2023-07-28T00:00:42;2.53;;;2.33;;
10005;SDS011;5042;42.626;23.382;2023-07-28T00:03:09;2.80;;;2.70;;
10005;SDS011;5042;42.626;23.382;2023-07-28T00:05:35;2.93;;;2.73;;
10005;SDS011;5042;42.626;23.382;2023-07-28T00:08:02;2.60;;;2.50;;
10005;SDS011;5042;42.626;23.382;2023-07-28T00:10:29;2.70;;;2.50;;
10005;SDS011;5042;42.626;23.382;2023-07-28T00:12:58;2.83;;;2.63;;
10005;SDS011;5042;42.626;23.382;2023-07-28T00:15:26;2.90;;;2.70;;
10005;SDS011;5042;42.626;23.382;2023-07-28T00:17:52;2.43;;;2.33;;
10005;SDS011;5042;42.626;23.382;2023-07-28T00:20:19;3.20;;;3.00;;
10005;SDS011;5042;42.626;23.382;2023-07-28T00:22:46;2.57;;;2.47;;
10005;SDS011;5042;42.626;23.382;2023-07-28T00:25:12;2.77;;;2.57;;
10005;SDS011;5042;42.626;23.382;2023-07-28T00:27:39;2.70;;;2.47;;
10005;SDS011;5042;42.626;23.382;2023-07-28T00:30:08;2.80;;;2.60;;
10005;SDS011;5042;42.626;23.382;2023-07-28T00:32:36;2.80;;;2.60;;
10005;SDS011;5042;42.626;23.382;2023-07-28T00:35:03;3.30;;;3.10;;
10005;SDS011;5042;42.626;23.382;2023-07-28T00:37:30;3.40;;;3.00;;
10005;SDS011;5042;42.626;23.382;2023-07-28T00:39:59;2.93;;;2.73;;
10005;SDS011;5042;42.626;23.382;2023-07-28T00:42:26;2.67;;;2.57;;
10005;SDS011;5042;42.626;23.382;2023-07-28T00:44:52;2.87;;;2.67;;
10005;SDS011;5042;42.626;23.382;2023-07-28T00:47:20;2.40;;;2.30;;
10005;SDS011;5042;42.626;23.382;2023-07-28T00:49:47;2.67;;;2.50;;
10005;SDS011;5042;42.626;23.382;2023-07-28T00:52:14;3.00;;;2.80;;
10005;SDS011;5042;42.626;23.382;2023-07-28T00:54:41;2.40;;;2.30;;
10005;SDS011;5042;42.626;23.382;2023-07-28T00:57:07;3.00;;;2.80;;
10005;SDS011;5042;42.626;23.382;2023-07-28T00:59:34;2.50;;;2.40;;
10005;SDS011;5042;42.626;23.382;2023-07-28T01:02:01;2.73;;;2.63;;
10005;SDS011;5042;42.626;23.382;2023-07-28T01:04:30;3.20;;;3.00;;
10005;SDS011;5042;42.626;23.382;2023-07-28T01:06:59;3.37;;;3.17;;
10005;SDS011;5042;42.626;23.382;2023-07-28T01:09:33;3.40;;;3.20;;
10005;SDS011;5042;42.626;23.382;2023-07-28T01:12:06;3.77;;;3.57;;
10005;SDS011;5042;42.626;23.382;2023-07-28T01:14:34;4.00;;;3.70;;
10005;SDS011;5042;42.626;23.382;2023-07-28T01:17:01;3.83;;;3.53;;
10005;SDS011;5042;42.626;23.382;2023-07-28T01:19:28;3.90;;;3.70;;
10005;SDS011;5042;42.626;23.382;2023-07-28T01:21:57;4.27;;;3.93;;
10005;SDS011;5042;42.626;23.382;2023-07-28T01:24:38;3.90;;;3.60;;
10005;SDS011;5042;42.626;23.382;2023-07-28T01:27:17;4.07;;;3.77;;
10005;SDS011;5042;42.626;23.382;2023-07-28T01:29:44;4.47;;;4.17;;
10005;SDS011;5042;42.626;23.382;2023-07-28T01:32:12;3.93;;;3.60;;
10005;SDS011;5042;42.626;23.382;2023-07-28T01:34:39;4.73;;;3.83;;
10005;SDS011;5042;42.626;23.382;2023-07-28T01:37:06;4.10;;;3.80;;
10005;SDS011;5042;42.626;23.382;2023-07-28T01:39:33;4.63;;;4.33;;
10005;SDS011;5042;42.626;23.382;2023-07-28T01:42:00;4.53;;;4.23;;
10005;SDS011;5042;42.626;23.382;2023-07-28T01:44:28;4.33;;;3.93;;
10005;SDS011;5042;42.626;23.382;2023-07-28T01:46:54;4.37;;;4.07;;
10005;SDS011;5042;42.626;23.382;2023-07-28T01:49:21;4.80;;;4.40;;
10005;SDS011;5042;42.626;23.382;2023-07-28T01:51:48;4.53;;;4.13;;
10005;SDS011;5042;42.626;23.382;2023-07-28T01:54:14;4.60;;;4.20;;
10005;SDS011;5042;42.626;23.382;2023-07-28T01:56:41;5.03;;;4.37;;
10005;SDS011;5042;42.626;23.382;2023-07-28T01:59:08;4.53;;;4.13;;
10005;SDS011;5042;42.626;23.382;2023-07-28T02:01:36;5.00;;;4.60;;
10005;SDS011;5042;42.626;23.382;2023-07-28T02:04:02;5.00;;;4.60;;
10005;SDS011;5042;42.626;23.382;2023-07-28T02:06:30;4.30;;;4.00;;
10005;SDS011;5042;42.626;23.382;2023-07-28T02:08:57;4.63;;;4.20;;
10005;SDS011;5042;42.626;23.382;2023-07-28T02:11:24;4.60;;;4.30;;
10005;SDS011;5042;42.626;23.382;2023-07-28T02:13:50;4.13;;;3.83;;
10005;SDS011;5042;42.626;23.382;2023-07-28T02:16:17;4.67;;;4.07;;
10005;SDS011;5042;42.626;23.382;2023-07-28T02:18:45;5.47;;;4.00;;
10005;SDS011;5042;42.626;23.382;2023-07-28T02:21:12;3.63;;;3.37;;
10005;SDS011;5042;42.626;23.382;2023-07-28T02:23:39;3.33;;;3.13;;
10005;SDS011;5042;42.626;23.382;2023-07-28T02:26:05;3.70;;;3.40;;
10005;SDS011;5042;42.626;23.382;2023-07-28T02:28:32;3.60;;;3.40;;
10005;SDS011;5042;42.626;23.382;2023-07-28T02:30:59;3.90;;;3.60;;
10005;SDS011;5042;42.626;23.382;2023-07-28T02:33:26;3.50;;;3.30;;
10005;SDS011;5042;42.626;23.382;2023-07-28T02:35:55;4.03;;;3.73;;
10005;SDS011;5042;42.626;23.382;2023-07-28T02:38:22;3.50;;;3.20;;
10005;SDS011;5042;42.626;23.382;2023-07-28T02:40:49;3.73;;;3.43;;
10005;SDS011;5042;42.626;23.382;2023-07-28T02:43:15;3.70;;;3.40;;
10005;SDS011;5042;42.626;23.382;2023-07-28T02:45:42;3.23;;;3.03;;
10005;SDS011;5042;42.626;23.382;2023-07-28T02:48:09;3.50;;;3.20;;
10005;SDS011;5042;42.626;23.382;2023-07-28T02:50:36;3.13;;;2.83;;
10005;SDS011;5042;42.626;23.382;2023-07-28T02:53:05;2.77;;;2.57;;
10005;SDS011;5042;42.626;23.382;2023-07-28T02:55:31;3.13;;;2.93;;
10005;SDS011;5042;42.626;23.382;2023-07-28T02:57:58;2.80;;;2.60;;
10005;SDS011;5042;42.626;23.382;2023-07-28T03:00:25;3.10;;;2.80;;
10005;SDS011;5042;42.626;23.382;2023-07-28T03:02:51;2.83;;;2.63;;
10005;SDS011;5042;42.626;23.382;2023-07-28T03:05:18;3.20;;;3.00;;
10005;SDS011;5042;42.626;23.382;2023-07-28T03:07:47;4.97;;;3.30;;
10005;SDS011;5042;42.626;23.382;2023-07-28T03:10:15;4.43;;;3.60;;
10005;SDS011;5042;42.626;23.382;2023-07-28T03:12:42;3.77;;;3.50;;
10005;SDS011;5042;42.626;23.382;2023-07-28T03:15:09;3.73;;;3.43;;
10005;SDS011;5042;42.626;23.382;2023-07-28T03:17:36;3.20;;;2.90;;
10005;SDS011;5042;42.626;23.382;2023-07-28T03:20:03;3.20;;;2.80;;
10005;SDS011;5042;42.626;23.382;2023-07-28T03:22:30;3.07;;;2.60;;
10005;SDS011;5042;42.626;23.382;2023-07-28T03:24:57;2.80;;;2.60;;
10005;SDS011;5042;42.626;23.382;2023-07-28T03:27:25;3.50;;;3.30;;
10005;SDS011;5042;42.626;23.382;2023-07-28T03:29:51;2.97;;;2.77;;
10005;SDS011;5042;42.626;23.382;2023-07-28T03:32:18;3.20;;;3.00;;
10005;SDS011;5042;42.626;23.382;2023-07-28T03:34:45;7.27;;;2.70;;
10005;SDS011;5042;42.626;23.382;2023-07-28T03:37:11;3.70;;;3.00;;
10005;SDS011;5042;42.626;23.382;2023-07-28T03:39:38;6.13;;;3.60;;
10005;SDS011;5042;42.626;23.382;2023-07-28T03:42:05;8.50;;;3.60;;
10005;SDS011;5042;42.626;23.382;2023-07-28T03:44:33;3.43;;;3.10;;
10005;SDS011;5042;42.626;23.382;2023-07-28T03:47:02;3.50;;;3.30;;
10005;SDS011;5042;42.626;23.382;2023-07-28T03:49:29;4.03;;;3.73;;
10005;SDS011;5042;42.626;23.382;2023-07-28T03:51:56;3.37;;;3.10;;
10005;SDS011;5042;42.626;23.382;2023-07-28T03:54:23;3.70;;;3.27;;
10005;SDS011;5042;42.626;23.382;2023-07-28T03:56:49;4.03;;;3.63;;
10005;SDS011;5042;42.626;23.382;2023-07-28T03:59:16;4.27;;;3.57;;
10005;SDS011;5042;42.626;23.382;2023-07-28T04:01:44;3.77;;;3.50;;
10005;SDS011;5042;42.626;23.382;2023-07-28T04:04:11;3.93;;;3.63;;
10005;SDS011;5042;42.626;23.382;2023-07-28T04:06:41;3.90;;;3.50;;
10005;SDS011;5042;42.626;23.382;2023-07-28T04:09:09;3.73;;;3.43;;
10005;SDS011;5042;42.626;23.382;2023-07-28T04:11:37;3.70;;;3.40;;
10005;SDS011;5042;42.626;23.382;2023-07-28T04:14:04;4.53;;;3.37;;
10005;SDS011;5042;42.626;23.382;2023-07-28T04:16:31;4.17;;;3.53;;
10005;SDS011;5042;42.626;23.382;2023-07-28T04:18:59;5.33;;;3.47;;
10005;SDS011;5042;42.626;23.382;2023-07-28T04:21:25;3.30;;;3.10;;
10005;SDS011;5042;42.626;23.382;2023-07-28T04:23:52;5.37;;;3.90;;
10005;SDS011;5042;42.626;23.382;2023-07-28T04:26:19;3.63;;;3.17;;
10005;SDS011;5042;42.626;23.382;2023-07-28T04:28:46;3.77;;;3.40;;
10005;SDS011;5042;42.626;23.382;2023-07-28T04:31:12;3.83;;;3.47;;
10005;SDS011;5042;42.626;23.382;2023-07-28T04:33:40;5.53;;;3.10;;
10005;SDS011;5042;42.626;23.382;2023-07-28T04:36:09;3.30;;;3.10;;
10005;SDS011;5042;42.626;23.382;2023-07-28T04:38:36;4.20;;;3.40;;
10005;SDS011;5042;42.626;23.382;2023-07-28T04:41:02;4.25;;;3.20;;
10005;SDS011;5042;42.626;23.382;2023-07-28T04:43:29;3.50;;;3.30;;
10005;SDS011;5042;42.626;23.382;2023-07-28T04:45:56;3.90;;;3.60;;
10005;SDS011;5042;42.626;23.382;2023-07-28T04:48:22;5.35;;;4.13;;
10005;SDS011;5042;42.626;23.382;2023-07-28T04:50:49;4.53;;;4.10;;
10005;SDS011;5042;42.626;23.382;2023-07-28T04:53:17;5.25;;;3.83;;
10005;SDS011;5042;42.626;23.382;2023-07-28T04:55:44;4.32;;;4.03;;
10005;SDS011;5042;42.626;23.382;2023-07-28T04:58:11;7.30;;;4.40;;
10005;SDS011;5042;42.626;23.382;2023-07-28T05:00:37;4.30;;;3.90;;
10005;SDS011;5042;42.626;23.382;2023-07-28T05:03:04;3.97;;;3.47;;
10005;SDS011;5042;42.626;23.382;2023-07-28T05:05:31;3.97;;;3.60;;
10005;SDS011;5042;42.626;23.382;2023-07-28T05:07:58;3.88;;;3.55;;
10005;SDS011;5042;42.626;23.382;2023-07-28T05:10:26;3.83;;;3.53;;
10005;SDS011;5042;42.626;23.382;2023-07-28T05:12:52;3.78;;;3.40;;
10005;SDS011;5042;42.626;23.382;2023-07-28T05:15:19;4.43;;;3.80;;
10005;SDS011;5042;42.626;23.382;2023-07-28T05:17:46;4.53;;;3.80;;
10005;SDS011;5042;42.626;23.382;2023-07-28T05:20:12;3.95;;;3.65;;
10005;SDS011;5042;42.626;23.382;2023-07-28T05:22:39;3.80;;;3.50;;
10005;SDS011;5042;42.626;23.382;2023-07-28T05:25:06;4.13;;;3.83;;
10005;SDS011;5042;42.626;23.382;2023-07-28T05:27:35;4.32;;;3.47;;
10005;SDS011;5042;42.626;23.382;2023-07-28T05:30:02;3.67;;;3.33;;
10005;SDS011;5042;42.626;23.382;2023-07-28T05:32:28;4.28;;;3.20;;
10005;SDS011;5042;42.626;23.382;2023-07-28T05:34:55;3.28;;;3.00;;
10005;SDS011;5042;42.626;23.382;2023-07-28T05:37:22;3.05;;;2.85;;
10005;SDS011;5042;42.626;23.382;2023-07-28T05:39:49;3.17;;;2.88;;
10005;SDS011;5042;42.626;23.382;2023-07-28T05:42:16;5.13;;;3.30;;
10005;SDS011;5042;42.626;23.382;2023-07-28T05:44:44;3.35;;;2.78;;
10005;SDS011;5042;42.626;23.382;2023-07-28T05:47:11;2.70;;;2.58;;
10005;SDS011;5042;42.626;23.382;2023-07-28T05:49:37;2.50;;;2.40;;
10005;SDS011;5042;42.626;23.382;2023-07-28T05:52:04;2.72;;;2.53;;
10005;SDS011;5042;42.626;23.382;2023-07-28T05:54:31;3.05;;;2.75;;
10005;SDS011;5042;42.626;23.382;2023-07-28T05:56:58;3.38;;;3.13;;
10005;SDS011;5042;42.626;23.382;2023-07-28T05:59:25;3.00;;;2.60;;
10005;SDS011;5042;42.626;23.382;2023-07-28T06:01:53;2.47;;;2.38;;
10005;SDS011;5042;42.626;23.382;2023-07-28T06:04:20;4.38;;;4.07;;
10005;SDS011;5042;42.626;23.382;2023-07-28T06:06:46;4.07;;;3.45;;
10005;SDS011;5042;42.626;23.382;2023-07-28T06:09:13;3.67;;;3.40;;
10005;SDS011;5042;42.626;23.382;2023-07-28T06:11:40;3.60;;;3.35;;
10005;SDS011;5042;42.626;23.382;2023-07-28T06:14:07;4.85;;;2.78;;
10005;SDS011;5042;42.626;23.382;2023-07-28T06:16:33;3.53;;;3.28;;
10005;SDS011;5042;42.626;23.382;2023-07-28T06:19:02;3.25;;;3.05;;
10005;SDS011;5042;42.626;23.382;2023-07-28T06:21:29;4.35;;;3.95;;
10005;SDS011;5042;42.626;23.382;2023-07-28T06:23:56;4.15;;;3.50;;
10005;SDS011;5042;42.626;23.382;2023-07-28T06:26:22;4.28;;;3.97;;
10005;SDS011;5042;42.626;23.382;2023-07-28T06:28:49;3.70;;;3.40;;
10005;SDS011;5042;42.626;23.382;2023-07-28T06:31:16;5.00;;;3.50;;
10005;SDS011;5042;42.626;23.382;2023-07-28T06:33:43;3.50;;;3.30;;
10005;SDS011;5042;42.626;23.382;2023-07-28T06:36:11;3.92;;;3.63;;
10005;SDS011;5042;42.626;23.382;2023-07-28T06:38:38;3.65;;;3.35;;
10005;SDS011;5042;42.626;23.382;2023-07-28T06:41:04;4.97;;;3.25;;
10005;SDS011;5042;42.626;23.382;2023-07-28T06:43:31;3.65;;;3.35;;
10005;SDS011;5042;42.626;23.382;2023-07-28T06:45:58;5.63;;;3.70;;
10005;SDS011;5042;42.626;23.382;2023-07-28T06:48:24;3.78;;;2.80;;
10005;SDS011;5042;42.626;23.382;2023-07-28T06:50:51;3.40;;;3.10;;
10005;SDS011;5042;42.626;23.382;2023-07-28T06:53:20;4.82;;;3.30;;
10005;SDS011;5042;42.626;23.382;2023-07-28T06:55:46;3.85;;;3.10;;
10005;SDS011;5042;42.626;23.382;2023-07-28T06:58:13;4.65;;;3.15;;
10005;SDS011;5042;42.626;23.382;2023-07-28T07:00:40;3.80;;;3.50;;
10005;SDS011;5042;42.626;23.382;2023-07-28T07:03:07;3.53;;;3.22;;
10005;SDS011;5042;42.626;23.382;2023-07-28T07:05:33;3.42;;;3.08;;
10005;SDS011;5042;42.626;23.382;2023-07-28T07:08:00;3.65;;;3.38;;
10005;SDS011;5042;42.626;23.382;2023-07-28T07:10:28;3.22;;;2.80;;
10005;SDS011;5042;42.626;23.382;2023-07-28T07:12:55;3.47;;;3.20;;
10005;SDS011;5042;42.626;23.382;2023-07-28T07:15:22;3.22;;;3.03;;
10005;SDS011;5042;42.626;23.382;2023-07-28T07:17:49;3.22;;;2.83;;
10005;SDS011;5042;42.626;23.382;2023-07-28T07:20:16;2.97;;;2.75;;
10005;SDS011;5042;42.626;23.382;2023-07-28T07:22:42;3.70;;;3.47;;
10005;SDS011;5042;42.626;23.382;2023-07-28T07:25:09;3.58;;;3.28;;
10005;SDS011;5042;42.626;23.382;2023-07-28T07:27:37;4.05;;;3.53;;
10005;SDS011;5042;42.626;23.382;2023-07-28T07:30:04;3.72;;;3.38;;
10005;SDS011;5042;42.626;23.382;2023-07-28T07:32:33;4.85;;;3.40;;
10005;SDS011;5042;42.626;23.382;2023-07-28T07:35:00;3.65;;;3.38;;
10005;SDS011;5042;42.626;23.382;2023-07-28T07:37:26;3.63;;;3.33;;
10005;SDS011;5042;42.626;23.382;2023-07-28T07:39:53;3.90;;;3.50;;
10005;SDS011;5042;42.626;23.382;2023-07-28T07:42:20;3.55;;;3.25;;
10005;SDS011;5042;42.626;23.382;2023-07-28T07:44:48;3.20;;;3.00;;
10005;SDS011;5042;42.626;23.382;2023-07-28T07:47:15;3.33;;;3.13;;
10005;SDS011;5042;42.626;23.382;2023-07-28T07:49:42;3.20;;;3.00;;
10005;SDS011;5042;42.626;23.382;2023-07-28T07:52:09;3.38;;;3.13;;
10005;SDS011;5042;42.626;23.382;2023-07-28T07:54:36;3.60;;;3.40;;
10005;SDS011;5042;42.626;23.382;2023-07-28T07:57:03;4.93;;;3.10;;
10005;SDS011;5042;42.626;23.382;2023-07-28T07:59:30;3.47;;;2.78;;
10005;SDS011;5042;42.626;23.382;2023-07-28T08:02:00;3.67;;;3.05;;
10005;SDS011;5042;42.626;23.382;2023-07-28T08:04:28;2.85;;;2.65;;
10005;SDS011;5042;42.626;23.382;2023-07-28T08:06:55;3.40;;;3.10;;
10005;SDS011;5042;42.626;23.382;2023-07-28T08:09:22;3.20;;;3.00;;
10005;SDS011;5042;42.626;23.382;2023-07-28T08:11:49;4.35;;;3.00;;
10005;SDS011;5042;42.626;23.382;2023-07-28T08:14:15;3.05;;;2.75;;
10005;SDS011;5042;42.626;23.382;2023-07-28T08:16:42;4.28;;;2.90;;
10005;SDS011;5042;42.626;23.382;2023-07-28T08:19:10;3.20;;;2.90;;
10005;SDS011;5042;42.626;23.382;2023-07-28T08:21:37;2.60;;;2.40;;
10005;SDS011;5042;42.626;23.382;2023-07-28T08:24:04;3.65;;;3.08;;
10005;SDS011;5042;42.626;23.382;2023-07-28T08:26:31;3.03;;;2.80;;
10005;SDS011;5042;42.626;23.382;2023-07-28T08:28:57;4.63;;;3.45;;
10005;SDS011;5042;42.626;23.382;2023-07-28T08:31:24;3.10;;;2.72;;
10005;SDS011;5042;42.626;23.382;2023-07-28T08:33:51;5.88;;;2.75;;
10005;SDS011;5042;42.626;23.382;2023-07-28T08:36:19;3.80;;;2.88;;
10005;SDS011;5042;42.626;23.382;2023-07-28T08:38:45;6.80;;;3.08;;
10005;SDS011;5042;42.626;23.382;2023-07-28T08:41:12;3.22;;;2.92;;
10005;SDS011;5042;42.626;23.382;2023-07-28T08:43:39;6.30;;;2.70;;
10005;SDS011;5042;42.626;23.382;2023-07-28T08:46:06;3.42;;;3.13;;
10005;SDS011;5042;42.626;23.382;2023-07-28T08:48:33;2.88;;;2.67;;
10005;SDS011;5042;42.626;23.382;2023-07-28T08:51:00;3.20;;;3.00;;
10005;SDS011;5042;42.626;23.382;2023-07-28T08:53:28;4.72;;;4.30;;
10005;SDS011;5042;42.626;23.382;2023-07-28T08:55:54;3.72;;;3.42;;
10005;SDS011;5042;42.626;23.382;2023-07-28T08:58:22;2.90;;;2.70;;
10005;SDS011;5042;42.626;23.382;2023-07-28T09:00:49;2.95;;;2.75;;
10005;SDS011;5042;42.626;23.382;2023-07-28T09:03:17;3.95;;;3.58;;
10005;SDS011;5042;42.626;23.382;2023-07-28T09:05:46;3.50;;;3.20;;
10005;SDS011;5042;42.626;23.382;2023-07-28T09:08:13;3.30;;;3.10;;
10005;SDS011;5042;42.626;23.382;2023-07-28T09:10:41;4.45;;;2.47;;
10005;SDS011;5042;42.626;23.382;2023-07-28T09:13:09;5.88;;;2.90;;
10005;SDS011;5042;42.626;23.382;2023-07-28T09:15:37;2.88;;;2.70;;
10005;SDS011;5042;42.626;23.382;2023-07-28T09:18:07;3.08;;;2.88;;
10005;SDS011;5042;42.626;23.382;2023-07-28T09:20:35;3.00;;;2.70;;
10005;SDS011;5042;42.626;23.382;2023-07-28T09:23:03;2.60;;;2.40;;
10005;SDS011;5042;42.626;23.382;2023-07-28T09:25:33;3.47;;;2.38;;
10005;SDS011;5042;42.626;23.382;2023-07-28T09:28:02;3.05;;;2.28;;
10005;SDS011;5042;42.626;23.382;2023-07-28T09:30:43;2.50;;;2.40;;
10005;SDS011;5042;42.626;23.382;2023-07-28T09:33:11;2.50;;;2.30;;
10005;SDS011;5042;42.626;23.382;2023-07-28T09:35:46;2.83;;;2.60;;
10005;SDS011;5042;42.626;23.382;2023-07-28T09:38:14;2.30;;;2.20;;
10005;SDS011;5042;42.626;23.382;2023-07-28T09:40:41;2.70;;;2.50;;
10005;SDS011;5042;42.626;23.382;2023-07-28T09:43:11;2.88;;;2.58;;
10005;SDS011;5042;42.626;23.382;2023-07-28T09:45:38;2.40;;;2.20;;
10005;SDS011;5042;42.626;23.382;2023-07-28T09:48:06;2.20;;;2.10;;
10005;SDS011;5042;42.626;23.382;2023-07-28T09:50:36;2.63;;;2.42;;
10005;SDS011;5042;42.626;23.382;2023-07-28T09:53:04;2.67;;;2.47;;
10005;SDS011;5042;42.626;23.382;2023-07-28T09:55:34;2.67;;;2.47;;
10005;SDS011;5042;42.626;23.382;2023-07-28T09:58:03;4.20;;;2.58;;
10005;SDS011;5042;42.626;23.382;2023-07-28T10:00:33;2.90;;;2.35;;
10005;SDS011;5042;42.626;23.382;2023-07-28T10:03:00;4.60;;;2.90;;
10005;SDS011;5042;42.626;23.382;2023-07-28T10:05:28;3.30;;;2.85;;
10005;SDS011;5042;42.626;23.382;2023-07-28T10:07:55;4.10;;;2.40;;
10005;SDS011;5042;42.626;23.382;2023-07-28T10:10:23;2.88;;;2.67;;
10005;SDS011;5042;42.626;23.382;2023-07-28T10:12:52;2.88;;;2.45;;
10005;SDS011;5042;42.626;23.382;2023-07-28T10:15:20;3.13;;;2.80;;
10005;SDS011;5042;42.626;23.382;2023-07-28T10:17:56;2.75;;;2.55;;
10005;SDS011;5042;42.626;23.382;2023-07-28T10:20:28;4.43;;;2.72;;
10005;SDS011;5042;42.626;23.382;2023-07-28T10:23:07;3.25;;;2.70;;
10005;SDS011;5042;42.626;23.382;2023-07-28T10:25:37;2.85;;;2.63;;
10005;SDS011;5042;42.626;23.382;2023-07-28T10:28:05;3.13;;;2.53;;
10005;SDS011;5042;42.626;23.382;2023-07-28T10:30:36;2.92;;;2.63;;
10005;SDS011;5042;42.626;23.382;2023-07-28T10:33:06;2.92;;;2.47;;
10005;SDS011;5042;42.626;23.382;2023-07-28T10:35:34;2.60;;;2.50;;
10005;SDS011;5042;42.626;23.382;2023-07-28T10:41:09;2.50;;;2.30;;
10005;SDS011;5042;42.626;23.382;2023-07-28T10:43:41;2.53;;;2.33;;
10005;SDS011;5042;42.626;23.382;2023-07-28T10:46:08;6.40;;;3.67;;
10005;SDS011;5042;42.626;23.382;2023-07-28T10:48:40;3.67;;;2.83;;
10005;SDS011;5042;42.626;23.382;2023-07-28T10:51:08;3.10;;;2.90;;
10005;SDS011;5042;42.626;23.382;2023-07-28T10:53:36;3.15;;;2.80;;
10005;SDS011;5042;42.626;23.382;2023-07-28T10:56:03;2.90;;;2.47;;
10005;SDS011;5042;42.626;23.382;2023-07-28T10:58:33;3.08;;;2.85;;
10005;SDS011;5042;42.626;23.382;2023-07-28T11:01:01;3.28;;;2.60;;
10005;SDS011;5042;42.626;23.382;2023-07-28T11:03:28;3.83;;;2.30;;
10005;SDS011;5042;42.626;23.382;2023-07-28T11:05:57;2.50;;;2.30;;
10005;SDS011;5042;42.626;23.382;2023-07-28T11:08:23;3.17;;;2.60;;
10005;SDS011;5042;42.626;23.382;2023-07-28T11:10:51;2.90;;;2.70;;
10005;SDS011;5042;42.626;23.382;2023-07-28T11:13:17;3.75;;;3.47;;
10005;SDS011;5042;42.626;23.382;2023-07-28T11:15:44;3.83;;;2.45;;
10005;SDS011;5042;42.626;23.382;2023-07-28T11:18:11;3.22;;;2.92;;
10005;SDS011;5042;42.626;23.382;2023-07-28T11:20:41;3.75;;;2.72;;
10005;SDS011;5042;42.626;23.382;2023-07-28T11:23:09;2.95;;;2.72;;
10005;SDS011;5042;42.626;23.382;2023-07-28T11:25:39;3.00;;;2.80;;
10005;SDS011;5042;42.626;23.382;2023-07-28T11:28:09;2.10;;;2.00;;
10005;SDS011;5042;42.626;23.382;2023-07-28T11:30:36;2.58;;;2.38;;
10005;SDS011;5042;42.626;23.382;2023-07-28T11:33:03;2.65;;;2.45;;
10005;SDS011;5042;42.626;23.382;2023-07-28T11:35:34;2.80;;;2.60;;
10005;SDS011;5042;42.626;23.382;2023-07-28T11:38:01;2.50;;;2.30;;
10005;SDS011;5042;42.626;23.382;2023-07-28T11:40:29;3.72;;;2.50;;
10005;SDS011;5042;42.626;23.382;2023-07-28T11:42:56;2.70;;;2.50;;
10005;SDS011;5042;42.626;23.382;2023-07-28T11:45:23;2.75;;;2.55;;
10005;SDS011;5042;42.626;23.382;2023-07-28T11:47:54;2.60;;;2.40;;
10005;SDS011;5042;42.626;23.382;2023-07-28T11:50:22;2.80;;;2.50;;
10005;SDS011;5042;42.626;23.382;2023-07-28T11:52:50;2.30;;;2.10;;
10005;SDS011;5042;42.626;23.382;2023-07-28T11:55:16;2.65;;;2.38;;
10005;SDS011;5042;42.626;23.382;2023-07-28T11:57:47;3.28;;;2.58;;
10005;SDS011;5042;42.626;23.382;2023-07-28T12:00:14;2.20;;;2.10;;
10005;SDS011;5042;42.626;23.382;2023-07-28T12:02:43;2.72;;;2.53;;
10005;SDS011;5042;42.626;23.382;2023-07-28T12:05:11;2.80;;;2.60;;
10005;SDS011;5042;42.626;23.382;2023-07-28T12:07:39;2.55;;;2.35;;
10005;SDS011;5042;42.626;23.382;2023-07-28T12:10:06;3.08;;;2.30;;
10005;SDS011;5042;42.626;23.382;2023-07-28T12:12:39;5.32;;;2.30;;
10005;SDS011;5042;42.626;23.382;2023-07-28T12:15:19;2.97;;;2.70;;
10005;SDS011;5042;42.626;23.382;2023-07-28T12:18:01;3.15;;;2.47;;
10005;SDS011;5042;42.626;23.382;2023-07-28T12:20:39;2.85;;;2.63;;
10005;SDS011;5042;42.626;23.382;2023-07-28T12:23:07;3.53;;;2.60;;
10005;SDS011;5042;42.626;23.382;2023-07-28T12:25:35;2.75;;;2.40;;
10005;SDS011;5042;42.626;23.382;2023-07-28T12:28:02;3.90;;;2.60;;
10005;SDS011;5042;42.626;23.382;2023-07-28T12:30:31;2.47;;;2.28;;
10005;SDS011;5042;42.626;23.382;2023-07-28T12:32:58;2.33;;;2.03;;
10005;SDS011;5042;42.626;23.382;2023-07-28T12:35:25;2.42;;;1.92;;
10005;SDS011;5042;42.626;23.382;2023-07-28T12:37:56;2.10;;;2.00;;
10005;SDS011;5042;42.626;23.382;2023-07-28T12:40:25;1.90;;;1.80;;
10005;SDS011;5042;42.626;23.382;2023-07-28T12:42:53;2.30;;;2.10;;
10005;SDS011;5042;42.626;23.382;2023-07-28T12:45:20;2.33;;;2.13;;
10005;SDS011;5042;42.626;23.382;2023-07-28T12:47:48;3.92;;;2.40;;
10005;SDS011;5042;42.626;23.382;2023-07-28T12:50:15;2.50;;;2.30;;
10005;SDS011;5042;42.626;23.382;2023-07-28T12:52:41;4.53;;;2.47;;
10005;SDS011;5042;42.626;23.382;2023-07-28T12:55:08;2.55;;;2.15;;
10005;SDS011;5042;42.626;23.382;2023-07-28T12:57:35;3.33;;;2.30;;
10005;SDS011;5042;42.626;23.382;2023-07-28T13:00:02;2.67;;;2.47;;
10005;SDS011;5042;42.626;23.382;2023-07-28T13:02:37;3.33;;;2.17;;
10005;SDS011;5042;42.626;23.382;2023-07-28T13:05:05;2.75;;;2.20;;
10005;SDS011;5042;42.626;23.382;2023-07-28T13:07:34;2.83;;;2.60;;
10005;SDS011;5042;42.626;23.382;2023-07-28T13:10:01;2.20;;;2.10;;
10005;SDS011;5042;42.626;23.382;2023-07-28T13:12:28;1.98;;;1.88;;
10005;SDS011;5042;42.626;23.382;2023-07-28T13:14:55;2.15;;;1.95;;
10005;SDS011;5042;42.626;23.382;2023-07-28T13:17:21;2.30;;;2.05;;
10005;SDS011;5042;42.626;23.382;2023-07-28T13:19:48;2.20;;;2.00;;
10005;SDS011;5042;42.626;23.382;2023-07-28T13:22:16;2.15;;;2.00;;
10005;SDS011;5042;42.626;23.382;2023-07-28T13:24:43;2.15;;;1.98;;
10005;SDS011;5042;42.626;23.382;2023-07-28T13:27:10;2.50;;;2.30;;
10005;SDS011;5042;42.626;23.382;2023-07-28T13:29:37;2.58;;;2.00;;
10005;SDS011;5042;42.626;23.382;2023-07-28T13:32:04;2.00;;;1.88;;
10005;SDS011;5042;42.626;23.382;2023-07-28T13:34:42;1.90;;;1.80;;
10005;SDS011;5042;42.626;23.382;2023-07-28T13:37:08;2.20;;;2.00;;
10005;SDS011;5042;42.626;23.382;2023-07-28T13:39:36;3.42;;;1.80;;
10005;SDS011;5042;42.626;23.382;2023-07-28T13:42:03;2.33;;;2.13;;
10005;SDS011;5042;42.626;23.382;2023-07-28T13:44:30;2.10;;;2.00;;
10005;SDS011;5042;42.626;23.382;2023-07-28T13:46:57;2.00;;;1.90;;
10005;SDS011;5042;42.626;23.382;2023-07-28T13:49:23;2.13;;;2.03;;
10005;SDS011;5042;42.626;23.382;2023-07-28T13:51:50;7.82;;;2.20;;
10005;SDS011;5042;42.626;23.382;2023-07-28T13:54:16;2.10;;;2.00;;
10005;SDS011;5042;42.626;23.382;2023-07-28T13:56:44;1.75;;;1.65;;
10005;SDS011;5042;42.626;23.382;2023-07-28T13:59:11;3.35;;;2.67;;
10005;SDS011;5042;42.626;23.382;2023-07-28T14:01:38;2.50;;;2.10;;
10005;SDS011;5042;42.626;23.382;2023-07-28T14:04:04;2.00;;;1.90;;
10005;SDS011;5042;42.626;23.382;2023-07-28T14:06:31;2.00;;;1.83;;
10005;SDS011;5042;42.626;23.382;2023-07-28T14:08:58;2.03;;;1.92;;
10005;SDS011;5042;42.626;23.382;2023-07-28T14:11:25;2.00;;;1.90;;
10005;SDS011;5042;42.626;23.382;2023-07-28T14:13:53;2.35;;;2.15;;
10005;SDS011;5042;42.626;23.382;2023-07-28T14:16:19;2.58;;;2.38;;
10005;SDS011;5042;42.626;23.382;2023-07-28T14:18:46;2.05;;;1.95;;
10005;SDS011;5042;42.626;23.382;2023-07-28T14:21:13;2.75;;;2.10;;
10005;SDS011;5042;42.626;23.382;2023-07-28T14:23:40;2.15;;;2.00;;
10005;SDS011;5042;42.626;23.382;2023-07-28T14:26:06;2.30;;;2.10;;
10005;SDS011;5042;42.626;23.382;2023-07-28T14:28:33;2.08;;;1.92;;
10005;SDS011;5042;42.626;23.382;2023-07-28T14:31:01;2.40;;;2.20;;
10005;SDS011;5042;42.626;23.382;2023-07-28T14:33:28;2.08;;;1.95;;
10005;SDS011;5042;42.626;23.382;2023-07-28T14:35:54;2.25;;;2.15;;
10005;SDS011;5042;42.626;23.382;2023-07-28T14:38:21;2.42;;;2.30;;
10005;SDS011;5042;42.626;23.382;2023-07-28T14:40:48;3.70;;;2.80;;
10005;SDS011;5042;42.626;23.382;2023-07-28T14:43:17;2.15;;;2.05;;
10005;SDS011;5042;42.626;23.382;2023-07-28T14:45:43;2.20;;;2.10;;
10005;SDS011;5042;42.626;23.382;2023-07-28T14:48:11;2.25;;;2.15;;
10005;SDS011;5042;42.626;23.382;2023-07-28T14:50:38;2.45;;;2.25;;
10005;SDS011;5042;42.626;23.382;2023-07-28T14:55:56;2.08;;;1.98;;